createdAt,value
2022-11-28T00:01:43.394Z,25.85
2022-11-28T00:04:14.545Z,24.77
2022-11-28T00:06:46.117Z,25.15
2022-11-28T00:09:16.006Z,25.20
2022-11-28T00:11:46.423Z,26.23
2022-11-28T00:14:15.485Z,27.08
2022-11-28T00:16:44.497Z,24.75
2022-11-28T00:19:14.556Z,23.75
2022-11-28T00:21:43.068Z,24.05
2022-11-28T00:24:11.154Z,24.05
2022-11-28T00:26:42.490Z,24.70
2022-11-28T00:29:11.567Z,24.05
2022-11-28T00:31:43.969Z,23.30
2022-11-28T00:34:15.739Z,23.92
2022-11-28T00:36:45.769Z,21.92
2022-11-28T00:39:14.545Z,22.50
2022-11-28T00:41:43.085Z,23.63
2022-11-28T00:44:11.530Z,24.55
2022-11-28T00:46:39.568Z,24.02
2022-11-28T00:49:08.522Z,24.13
2022-11-28T00:51:38.271Z,24.58
2022-11-28T00:54:07.580Z,25.27
2022-11-28T00:56:38.135Z,25.00
2022-11-28T00:59:07.310Z,23.30
2022-11-28T01:01:40.007Z,22.83
2022-11-28T01:04:10.314Z,24.02
2022-11-28T01:06:42.433Z,23.13
2022-11-28T01:09:13.266Z,23.05
2022-11-28T01:11:43.233Z,21.73
2022-11-28T01:14:13.792Z,25.98
2022-11-28T01:16:42.158Z,23.98
2022-11-28T01:19:10.501Z,23.95
2022-11-28T01:21:40.105Z,24.15
2022-11-28T01:24:08.553Z,22.90
2022-11-28T01:26:38.624Z,24.90
2022-11-28T01:29:06.740Z,24.80
2022-11-28T01:31:34.884Z,24.30
2022-11-28T01:34:03.013Z,23.05
2022-11-28T01:36:31.610Z,22.95
2022-11-28T01:39:01.066Z,22.88
2022-11-28T01:41:29.894Z,23.55
2022-11-28T01:44:10.316Z,23.08
2022-11-28T01:46:38.448Z,24.08
2022-11-28T01:49:14.875Z,23.80
2022-11-28T01:51:47.314Z,24.13
2022-11-28T01:54:19.806Z,23.80
2022-11-28T01:56:52.251Z,24.95
2022-11-28T01:59:22.897Z,22.83
2022-11-28T02:01:51.062Z,24.77
2022-11-28T02:04:19.722Z,24.85
2022-11-28T02:06:47.768Z,22.00
2022-11-28T02:09:17.985Z,22.75
2022-11-28T02:12:08.263Z,21.90
2022-11-28T02:15:02.234Z,21.00
2022-11-28T02:17:45.335Z,23.17
2022-11-28T02:20:37.229Z,23.08
2022-11-28T02:23:16.227Z,24.48
2022-11-28T02:26:11.910Z,23.52
2022-11-28T02:29:08.633Z,24.10
2022-11-28T02:32:06.763Z,23.20
2022-11-28T02:34:47.121Z,25.15
2022-11-28T02:37:25.084Z,24.40
2022-11-28T02:40:02.116Z,25.23
2022-11-28T02:42:37.969Z,23.80
2022-11-28T02:45:11.523Z,24.38
2022-11-28T02:47:46.464Z,19.83
2022-11-28T02:50:20.173Z,22.95
2022-11-28T02:52:52.099Z,22.42
2022-11-28T02:55:20.742Z,22.60
2022-11-28T02:57:51.169Z,24.65
2022-11-28T03:00:26.530Z,24.92
2022-11-28T03:03:07.433Z,24.42
2022-11-28T03:05:44.303Z,24.90
2022-11-28T03:08:25.380Z,24.73
2022-11-28T03:11:00.818Z,23.25
2022-11-28T03:13:40.114Z,22.15
2022-11-28T03:16:19.061Z,23.17
2022-11-28T03:19:00.492Z,21.85
2022-11-28T03:21:37.396Z,21.92
2022-11-28T03:24:11.604Z,20.75
2022-11-28T03:26:47.724Z,20.50
2022-11-28T03:29:21.369Z,21.13
2022-11-28T03:31:55.047Z,22.23
2022-11-28T03:34:28.562Z,21.90
2022-11-28T03:37:02.691Z,21.45
2022-11-28T03:39:36.959Z,20.58
2022-11-28T03:42:11.564Z,17.80
2022-11-28T03:44:45.026Z,18.15
2022-11-28T03:47:13.241Z,20.33
2022-11-28T03:49:46.907Z,20.60
2022-11-28T03:52:20.756Z,22.37
2022-11-28T03:54:55.364Z,21.60
2022-11-28T03:59:55.875Z,20.80
2022-11-28T04:02:32.044Z,22.58
2022-11-28T04:05:07.137Z,22.05
2022-11-28T04:07:41.280Z,25.10
2022-11-28T04:10:16.877Z,25.95
2022-11-28T04:12:56.227Z,24.20
2022-11-28T04:15:31.862Z,25.42
2022-11-28T04:18:07.411Z,26.63
2022-11-28T04:20:40.068Z,26.17
2022-11-28T04:23:13.163Z,24.25
2022-11-28T04:25:47.246Z,25.48
2022-11-28T04:28:20.715Z,26.08
2022-11-28T04:30:51.801Z,18.48
2022-11-28T04:33:23.364Z,26.10
2022-11-28T04:35:54.914Z,25.27
2022-11-28T04:38:25.677Z,25.83
2022-11-28T04:41:06.187Z,25.10
2022-11-28T04:43:36.851Z,24.95
2022-11-28T04:46:10.225Z,24.05
2022-11-28T04:48:38.593Z,24.48
2022-11-28T04:51:17.776Z,25.90
2022-11-28T04:53:51.272Z,25.83
2022-11-28T04:56:25.386Z,25.03
2022-11-28T04:58:53.436Z,26.45
2022-11-28T05:01:27.008Z,24.95
2022-11-28T05:03:56.019Z,25.90
2022-11-28T05:06:28.605Z,26.13
2022-11-28T05:08:56.967Z,24.58
2022-11-28T05:11:25.295Z,26.27
2022-11-28T05:13:53.775Z,26.00
2022-11-28T05:16:22.765Z,25.25
2022-11-28T05:18:50.923Z,24.92
2022-11-28T05:21:19.070Z,25.73
2022-11-28T05:23:49.040Z,28.10
2022-11-28T05:26:18.811Z,24.63
2022-11-28T05:28:48.511Z,24.83
2022-11-28T05:31:16.902Z,24.00
2022-11-28T05:33:44.917Z,24.33
2022-11-28T05:36:15.389Z,25.85
2022-11-28T05:38:44.780Z,25.85
2022-11-28T05:41:21.401Z,24.98
2022-11-28T05:43:49.440Z,24.83
2022-11-28T05:46:18.245Z,24.38
2022-11-28T05:48:46.384Z,24.13
2022-11-28T05:51:14.457Z,22.10
2022-11-28T05:53:42.725Z,21.63
2022-11-28T05:56:12.626Z,31.08
2022-11-28T05:58:42.113Z,22.00
2022-11-28T06:01:12.099Z,23.58
2022-11-28T06:03:40.761Z,22.73
2022-11-28T06:06:16.868Z,21.15
2022-11-28T06:08:45.940Z,22.83
2022-11-28T06:11:15.137Z,22.08
2022-11-28T06:13:46.429Z,19.88
2022-11-28T06:16:19.993Z,20.00
2022-11-28T06:18:48.736Z,25.13
2022-11-28T06:21:16.913Z,24.80
2022-11-28T06:23:45.049Z,25.00
2022-11-28T06:26:15.034Z,23.45
2022-11-28T06:28:44.989Z,24.10
2022-11-28T06:31:14.931Z,23.20
2022-11-28T06:33:43.698Z,19.38
2022-11-28T06:36:15.257Z,20.77
2022-11-28T06:38:43.861Z,18.52
2022-11-28T06:41:13.940Z,30.02
2022-11-28T06:43:42.133Z,20.60
2022-11-28T06:46:16.221Z,20.42
2022-11-28T06:48:45.555Z,23.42
2022-11-28T06:51:14.139Z,20.83
2022-11-28T06:53:42.479Z,23.08
2022-11-28T06:56:13.977Z,20.77
2022-11-28T06:58:42.632Z,21.05
2022-11-28T07:01:15.173Z,20.17
2022-11-28T07:03:43.979Z,20.55
2022-11-28T07:06:12.232Z,19.70
2022-11-28T07:08:41.121Z,20.75
2022-11-28T07:11:11.360Z,20.05
2022-11-28T07:13:39.712Z,20.58
2022-11-28T07:16:09.199Z,21.67
2022-11-28T07:18:38.750Z,23.15
2022-11-28T07:21:07.227Z,24.38
2022-11-28T07:23:38.447Z,27.50
2022-11-28T07:26:08.127Z,25.42
2022-11-28T07:28:36.258Z,24.08
2022-11-28T07:31:06.218Z,24.42
2022-11-28T07:33:35.801Z,23.75
2022-11-28T07:36:08.051Z,23.23
2022-11-28T07:38:36.325Z,24.60
2022-11-28T07:41:05.553Z,23.98
2022-11-28T07:43:33.642Z,23.35
2022-11-28T07:46:04.791Z,23.73
2022-11-28T07:48:33.103Z,23.08
2022-11-28T07:51:01.268Z,26.73
2022-11-28T07:53:30.725Z,25.05
2022-11-28T07:56:02.712Z,21.83
2022-11-28T07:58:30.914Z,21.85
2022-11-28T08:00:59.768Z,22.08
2022-11-28T08:03:27.901Z,20.63
2022-11-28T08:06:02.872Z,21.23
2022-11-28T08:08:32.837Z,20.30
2022-11-28T08:11:02.963Z,20.50
2022-11-28T08:13:31.595Z,18.58
2022-11-28T08:15:59.722Z,18.35
2022-11-28T08:18:27.918Z,19.17
2022-11-28T08:21:05.335Z,20.17
2022-11-28T08:23:37.095Z,19.88
2022-11-28T08:26:07.150Z,36.53
2022-11-28T08:28:35.666Z,34.38
2022-11-28T08:31:11.263Z,20.60
2022-11-28T08:33:40.132Z,19.40
2022-11-28T08:36:09.370Z,17.73
2022-11-28T08:38:40.326Z,20.05
2022-11-28T08:41:11.156Z,21.20
2022-11-28T08:43:39.869Z,21.83
2022-11-28T08:46:10.877Z,23.75
2022-11-28T08:48:41.960Z,22.20
2022-11-28T08:51:14.856Z,19.75
2022-11-28T08:53:48.663Z,21.63
2022-11-28T08:56:19.799Z,22.23
2022-11-28T08:58:48.003Z,21.02
2022-11-28T09:01:17.718Z,22.08
2022-11-28T09:03:48.373Z,22.63
2022-11-28T09:06:18.572Z,23.83
2022-11-28T09:08:48.548Z,22.15
2022-11-28T09:11:21.145Z,19.20
2022-11-28T09:13:49.876Z,17.58
2022-11-28T09:16:18.689Z,16.48
2022-11-28T09:18:46.988Z,16.13
2022-11-28T09:21:16.851Z,15.27
2022-11-28T09:23:48.058Z,14.68
2022-11-28T09:26:18.590Z,14.02
2022-11-28T09:28:47.484Z,13.40
2022-11-28T09:31:18.585Z,12.45
2022-11-28T09:33:48.295Z,12.60
2022-11-28T09:36:18.026Z,12.80
2022-11-28T09:38:46.239Z,12.48
2022-11-28T09:41:49.120Z,10.68
2022-11-28T09:44:22.951Z,10.27
2022-11-28T09:46:54.645Z,9.17
2022-11-28T09:49:40.662Z,10.18
2022-11-28T09:52:27.652Z,9.93
2022-11-28T09:55:04.962Z,10.13
2022-11-28T09:57:38.288Z,9.52
2022-11-28T10:00:12.236Z,10.07
2022-11-28T10:02:47.857Z,10.15
2022-11-28T10:05:25.666Z,10.50
2022-11-28T10:08:06.159Z,12.38
2022-11-28T10:10:41.720Z,9.88
2022-11-28T10:13:17.368Z,11.88
2022-11-28T10:15:56.927Z,16.10
2022-11-28T10:18:36.192Z,11.13
2022-11-28T10:21:09.886Z,11.15
2022-11-28T10:23:44.118Z,6.43
2022-11-28T10:26:22.110Z,11.18
2022-11-28T10:28:54.709Z,11.00
2022-11-28T10:31:32.057Z,10.07
2022-11-28T10:34:07.028Z,12.10
2022-11-28T10:36:47.457Z,9.63
2022-11-28T10:39:16.235Z,25.85
2022-11-28T10:42:11.475Z,12.70
2022-11-28T10:47:24.232Z,24.40
2022-11-28T10:49:58.541Z,9.50
2022-11-28T10:52:36.804Z,10.35
2022-11-28T10:55:23.894Z,10.13
2022-11-28T10:58:01.748Z,10.35
2022-11-28T11:00:31.994Z,10.85
2022-11-28T11:03:03.467Z,9.75
2022-11-28T11:05:33.889Z,8.32
2022-11-28T11:08:06.130Z,8.13
2022-11-28T11:10:40.657Z,9.68
2022-11-28T11:13:16.160Z,10.30
2022-11-28T11:15:48.797Z,8.68
2022-11-28T11:18:25.744Z,8.57
2022-11-28T11:21:08.852Z,9.23
2022-11-28T11:23:38.585Z,8.82
2022-11-28T11:26:10.323Z,9.48
2022-11-28T11:28:44.396Z,9.95
2022-11-28T11:31:27.090Z,7.88
2022-11-28T11:34:04.241Z,11.93
2022-11-28T11:36:34.235Z,11.50
2022-11-28T11:39:17.924Z,10.10
2022-11-28T11:41:47.926Z,9.60
2022-11-28T11:44:34.271Z,9.73
2022-11-28T11:47:06.144Z,10.45
2022-11-28T11:49:37.208Z,10.15
2022-11-28T11:52:07.965Z,11.10
2022-11-28T11:54:38.228Z,10.43
2022-11-28T11:57:31.985Z,8.90
2022-11-28T12:00:05.783Z,8.57
2022-11-28T12:02:47.967Z,9.35
2022-11-28T12:05:20.357Z,9.20
2022-11-28T12:07:58.602Z,9.85
2022-11-28T12:10:30.963Z,9.23
2022-11-28T12:12:59.194Z,12.27
2022-11-28T12:15:41.178Z,11.10
2022-11-28T12:18:22.944Z,10.60
2022-11-28T12:21:13.247Z,10.50
2022-11-28T12:24:09.924Z,11.52
2022-11-28T12:26:46.039Z,11.35
2022-11-28T12:29:37.881Z,12.48
2022-11-28T12:32:30.504Z,12.95
2022-11-28T12:35:30.702Z,12.80
2022-11-28T12:38:11.764Z,12.80
2022-11-28T12:40:55.405Z,14.13
2022-11-28T12:43:46.944Z,13.25
2022-11-28T12:46:23.076Z,10.48
2022-11-28T12:49:09.114Z,11.60
2022-11-28T12:51:56.425Z,17.08
2022-11-28T12:54:55.044Z,16.17
2022-11-28T12:57:33.476Z,12.73
2022-11-28T13:00:09.217Z,11.00
2022-11-28T13:02:49.024Z,10.73
2022-11-28T13:05:32.933Z,9.85
2022-11-28T13:08:36.199Z,7.78
2022-11-28T13:11:16.414Z,10.95
2022-11-28T13:13:52.711Z,11.75
2022-11-28T13:16:47.482Z,12.73
2022-11-28T13:19:33.958Z,18.30
2022-11-28T13:22:09.393Z,12.95
2022-11-28T13:24:44.462Z,13.25
2022-11-28T13:27:24.933Z,12.63
2022-11-28T13:30:10.323Z,12.18
2022-11-28T13:32:46.823Z,11.48
2022-11-28T13:35:17.374Z,11.13
2022-11-28T13:43:19.116Z,10.13
2022-11-28T13:45:50.074Z,9.57
2022-11-28T13:49:15.442Z,11.27
2022-11-28T13:51:47.983Z,11.63
2022-11-28T13:54:48.877Z,10.57
2022-11-28T13:57:25.486Z,11.27
2022-11-28T14:00:03.763Z,10.40
2022-11-28T14:02:50.833Z,10.88
2022-11-28T14:05:30.100Z,11.05
2022-11-28T14:07:59.205Z,13.15
2022-11-28T14:10:51.046Z,15.88
2022-11-28T14:13:46.179Z,14.75
2022-11-28T14:16:25.968Z,14.65
2022-11-28T14:19:12.052Z,24.02
2022-11-28T14:21:53.472Z,32.45
2022-11-28T14:24:34.979Z,32.80
2022-11-28T14:27:06.435Z,22.40
2022-11-28T14:29:40.425Z,19.80
2022-11-28T14:32:31.019Z,19.45
2022-11-28T14:35:01.783Z,17.58
2022-11-28T14:37:48.896Z,20.50
2022-11-28T14:41:06.543Z,20.73
2022-11-28T14:43:37.555Z,25.13
2022-11-28T14:46:35.134Z,23.90
2022-11-28T14:49:23.426Z,25.08
2022-11-28T14:52:42.888Z,26.63
2022-11-28T14:55:58.821Z,29.23
2022-11-28T14:58:27.224Z,23.42
2022-11-28T15:00:59.957Z,18.83
2022-11-28T15:03:40.218Z,15.75
2022-11-28T15:06:13.917Z,19.60
2022-11-28T15:09:17.141Z,17.27
2022-11-28T15:12:20.160Z,15.35
2022-11-28T15:15:19.149Z,19.75
2022-11-28T15:17:54.709Z,15.60
2022-11-28T15:20:30.875Z,15.52
2022-11-28T15:23:01.075Z,16.98
2022-11-28T15:25:35.601Z,15.82
2022-11-28T15:28:23.784Z,18.45
2022-11-28T15:30:54.099Z,19.20
2022-11-28T15:33:24.226Z,26.33
2022-11-28T15:36:01.224Z,22.67
2022-11-28T15:38:32.357Z,22.98
2022-11-28T15:41:01.946Z,22.55
2022-11-28T15:43:32.435Z,23.92
2022-11-28T15:46:03.752Z,23.42
2022-11-28T15:48:39.851Z,23.92
2022-11-28T15:51:28.270Z,27.67
2022-11-28T15:54:00.708Z,34.95
2022-11-28T15:56:40.745Z,27.45
2022-11-28T15:59:14.996Z,32.53
2022-11-28T16:01:43.745Z,30.85
2022-11-28T16:04:16.063Z,31.60
2022-11-28T16:06:51.608Z,29.35
2022-11-28T16:09:35.164Z,25.80
2022-11-28T16:12:11.666Z,29.08
2022-11-28T16:14:45.917Z,26.25
2022-11-28T16:17:24.358Z,22.33
2022-11-28T16:23:49.442Z,21.25
2022-11-28T16:26:25.712Z,24.85
2022-11-28T16:29:01.661Z,34.85
2022-11-28T16:31:30.823Z,25.05
2022-11-28T16:33:59.930Z,23.17
2022-11-28T16:36:35.615Z,26.02
2022-11-28T16:39:20.272Z,27.55
2022-11-28T16:45:48.358Z,25.70
2022-11-28T16:48:21.784Z,28.20
2022-11-28T16:51:24.862Z,26.75
2022-11-28T16:53:55.149Z,24.52
2022-11-28T16:56:27.918Z,24.77
2022-11-28T16:59:12.878Z,23.88
2022-11-28T17:04:25.490Z,28.83
2022-11-28T17:06:55.601Z,25.88
2022-11-28T17:09:27.765Z,29.02
2022-11-28T17:12:08.682Z,28.40
2022-11-28T17:14:39.394Z,41.10
2022-11-28T17:17:14.348Z,30.23
2022-11-28T17:19:42.977Z,30.83
2022-11-28T17:22:15.810Z,26.85
2022-11-28T17:24:44.742Z,25.00
2022-11-28T17:27:15.541Z,21.70
2022-11-28T17:29:51.285Z,22.92
2022-11-28T17:32:21.498Z,24.40
2022-11-28T17:34:55.005Z,27.17
2022-11-28T17:37:24.335Z,28.85
2022-11-28T17:40:11.484Z,29.50
2022-11-28T17:42:49.023Z,29.48
2022-11-28T17:45:20.072Z,27.98
2022-11-28T17:47:50.303Z,28.95
2022-11-28T17:50:21.279Z,21.98
2022-11-28T17:52:52.346Z,21.05
2022-11-28T17:55:20.781Z,23.73
2022-11-28T17:57:56.075Z,21.77
2022-11-28T18:00:31.683Z,22.45
2022-11-28T18:03:01.220Z,21.00
2022-11-28T18:05:38.076Z,21.92
2022-11-28T18:08:17.924Z,21.35
2022-11-28T18:11:03.463Z,22.67
2022-11-28T18:13:36.451Z,22.67
2022-11-28T18:16:12.387Z,24.10
2022-11-28T18:18:45.442Z,25.30
2022-11-28T18:21:14.571Z,28.70
2022-11-28T18:23:47.792Z,27.30
2022-11-28T18:26:30.204Z,27.48
2022-11-28T18:29:04.612Z,27.95
2022-11-28T18:31:35.582Z,26.10
2022-11-28T18:34:21.211Z,23.85
2022-11-28T18:37:02.513Z,20.75
2022-11-28T18:39:36.794Z,19.80
2022-11-28T18:42:08.067Z,23.92
2022-11-28T18:44:38.257Z,21.08
2022-11-28T18:47:10.158Z,28.00
2022-11-28T18:49:38.373Z,28.17
2022-11-28T18:52:06.818Z,28.75
2022-11-28T18:54:35.246Z,30.13
2022-11-28T18:57:04.737Z,21.20
2022-11-28T18:59:33.474Z,39.88
2022-11-28T19:02:02.940Z,32.75
2022-11-28T19:04:32.177Z,38.80
2022-11-28T19:07:01.705Z,30.98
2022-11-28T19:09:31.623Z,31.73
2022-11-28T19:11:59.927Z,35.20
2022-11-28T19:14:29.048Z,36.03
2022-11-28T19:16:57.664Z,32.55
2022-11-28T19:19:27.751Z,30.67
2022-11-28T19:21:57.353Z,28.50
2022-11-28T19:24:26.768Z,28.33
2022-11-28T19:26:56.282Z,29.17
2022-11-28T19:29:26.642Z,31.08
2022-11-28T19:31:55.736Z,29.30
2022-11-28T19:34:26.013Z,29.35
2022-11-28T19:36:57.240Z,46.90
2022-11-28T19:39:28.142Z,35.38
2022-11-28T19:41:57.347Z,34.65
2022-11-28T19:44:29.165Z,33.30
2022-11-28T19:46:57.642Z,32.03
2022-11-28T19:49:26.217Z,30.17
2022-11-28T19:51:56.119Z,29.90
2022-11-28T19:54:24.980Z,29.50
2022-11-28T19:57:01.445Z,39.28
2022-11-28T19:59:39.826Z,32.13
2022-11-28T20:02:08.376Z,32.67
2022-11-28T20:04:39.469Z,32.28
2022-11-28T20:07:09.438Z,34.60
2022-11-28T20:09:38.240Z,36.60
2022-11-28T20:12:07.629Z,32.72
2022-11-28T20:14:36.608Z,31.83
2022-11-28T20:17:06.277Z,35.80
2022-11-28T20:19:41.643Z,34.30
2022-11-28T20:22:15.537Z,36.78
2022-11-28T20:24:49.946Z,35.30
2022-11-28T20:28:27.950Z,30.50
2022-11-28T20:30:59.056Z,41.00
2022-11-28T20:33:30.404Z,34.00
2022-11-28T20:36:10.399Z,21.00
2022-11-28T20:38:41.137Z,25.23
2022-11-28T20:41:34.714Z,25.05
2022-11-28T20:44:03.166Z,24.13
2022-11-28T20:46:49.601Z,23.42
2022-11-28T20:49:18.422Z,22.55
2022-11-28T20:51:47.394Z,21.50
2022-11-28T20:54:17.486Z,22.65
2022-11-28T20:59:36.220Z,20.90
2022-11-28T21:02:05.520Z,21.30
2022-11-28T21:04:35.765Z,20.50
2022-11-28T21:07:05.043Z,21.77
2022-11-28T21:09:34.850Z,35.17
2022-11-28T21:12:03.334Z,20.30
2022-11-28T21:14:33.528Z,19.35
2022-11-28T21:17:01.701Z,18.75
2022-11-28T21:19:29.856Z,17.90
2022-11-28T21:21:58.140Z,16.35
2022-11-28T21:24:26.421Z,17.08
2022-11-28T21:26:56.271Z,16.70
2022-11-28T21:29:25.290Z,28.60
2022-11-28T21:31:53.934Z,19.33
2022-11-28T21:34:22.749Z,17.40
2022-11-28T21:36:51.781Z,16.02
2022-11-28T21:39:22.991Z,16.35
2022-11-28T21:41:52.105Z,17.70
2022-11-28T21:44:22.150Z,18.50
2022-11-28T21:46:50.924Z,15.35
2022-11-28T21:49:19.195Z,15.77
2022-11-28T21:51:47.444Z,14.23
2022-11-28T21:54:15.850Z,13.88
2022-11-28T21:56:46.681Z,14.80
2022-11-28T21:59:15.506Z,13.55
2022-11-28T22:01:45.574Z,14.35
2022-11-28T22:04:14.411Z,14.48
2022-11-28T22:06:54.532Z,14.48
2022-11-28T22:09:23.166Z,14.02
2022-11-28T22:11:51.851Z,14.35
2022-11-28T22:14:20.766Z,14.93
2022-11-28T22:16:50.355Z,13.73
2022-11-28T22:19:19.416Z,12.02
2022-11-28T22:21:52.198Z,12.18
2022-11-28T22:24:24.495Z,13.75
2022-11-28T22:26:53.556Z,13.55
2022-11-28T22:29:21.850Z,12.98
2022-11-28T22:31:52.029Z,10.82
2022-11-28T22:34:20.716Z,11.18
2022-11-28T22:36:49.108Z,10.27
2022-11-28T22:39:17.662Z,9.93
2022-11-28T22:41:46.658Z,10.85
2022-11-28T22:44:15.212Z,11.15
2022-11-28T22:46:43.501Z,11.25
2022-11-28T22:49:13.491Z,11.80
2022-11-28T22:51:42.451Z,12.10
2022-11-28T22:54:13.621Z,12.20
2022-11-28T22:56:43.490Z,12.88
2022-11-28T22:59:13.546Z,13.73
2022-11-28T23:01:43.596Z,13.93
2022-11-28T23:04:13.878Z,13.52
2022-11-28T23:06:42.862Z,13.95
2022-11-28T23:09:14.600Z,14.25
2022-11-28T23:11:42.683Z,14.00
2022-11-28T23:14:13.888Z,14.80
2022-11-28T23:16:44.731Z,16.13
2022-11-28T23:19:16.231Z,15.18
2022-11-28T23:21:47.705Z,15.50
2022-11-28T23:24:17.799Z,15.05
2022-11-28T23:26:48.107Z,16.83
2022-11-28T23:29:16.778Z,16.58
2022-11-28T23:31:46.971Z,15.85
2022-11-28T23:34:17.072Z,16.45
2022-11-28T23:36:47.292Z,18.08
2022-11-28T23:39:17.770Z,18.25
2022-11-28T23:41:47.008Z,18.10
2022-11-28T23:44:17.059Z,19.35
2022-11-28T23:46:45.534Z,18.48
2022-11-28T23:49:14.071Z,18.83
2022-11-28T23:51:43.881Z,17.83
2022-11-28T23:54:12.603Z,18.33
2022-11-28T23:56:42.161Z,19.17
2022-11-28T23:59:12.039Z,20.33
